sensor_id;sensor_type;location;lat;lon;timestamp;P1;durP1;ratioP1;P2;durP2;ratioP2
53867;SDS011;41577;47.470;19.080;2023-02-28T00:00:04;13.75;;;8.93;;
53867;SDS011;41577;47.470;19.080;2023-02-28T00:00:17;16.25;;;8.88;;
53867;SDS011;41577;47.470;19.080;2023-02-28T00:00:31;18.35;;;9.02;;
53867;SDS011;41577;47.470;19.080;2023-02-28T00:00:44;18.02;;;9.02;;
53867;SDS011;41577;47.470;19.080;2023-02-28T00:00:58;15.77;;;8.98;;
53867;SDS011;41577;47.470;19.080;2023-02-28T00:01:10;15.13;;;8.57;;
53867;SDS011;41577;47.470;19.080;2023-02-28T00:01:24;14.18;;;8.77;;
53867;SDS011;41577;47.470;19.080;2023-02-28T00:01:38;12.88;;;8.65;;
53867;SDS011;41577;47.470;19.080;2023-02-28T00:01:51;14.80;;;8.77;;
53867;SDS011;41577;47.470;19.080;2023-02-28T00:02:03;18.67;;;9.57;;
53867;SDS011;41577;47.470;19.080;2023-02-28T00:02:15;18.38;;;9.82;;
53867;SDS011;41577;47.470;19.080;2023-02-28T00:02:28;14.57;;;9.38;;
53867;SDS011;41577;47.470;19.080;2023-02-28T00:02:40;14.45;;;9.43;;
53867;SDS011;41577;47.470;19.080;2023-02-28T00:02:55;15.77;;;9.38;;
53867;SDS011;41577;47.470;19.080;2023-02-28T00:03:08;18.73;;;9.27;;
53867;SDS011;41577;47.470;19.080;2023-02-28T00:03:23;19.63;;;9.50;;
53867;SDS011;41577;47.470;19.080;2023-02-28T00:03:35;16.10;;;8.90;;
53867;SDS011;41577;47.470;19.080;2023-02-28T00:03:48;12.35;;;8.40;;
53867;SDS011;41577;47.470;19.080;2023-02-28T00:04:05;13.35;;;9.20;;
53867;SDS011;41577;47.470;19.080;2023-02-28T00:04:18;14.98;;;9.65;;
53867;SDS011;41577;47.470;19.080;2023-02-28T00:04:30;19.25;;;9.18;;
53867;SDS011;41577;47.470;19.080;2023-02-28T00:04:44;21.10;;;9.15;;
53867;SDS011;41577;47.470;19.080;2023-02-28T00:04:57;18.40;;;9.80;;
53867;SDS011;41577;47.470;19.080;2023-02-28T00:05:09;18.55;;;10.15;;
53867;SDS011;41577;47.470;19.080;2023-02-28T00:05:23;15.60;;;9.55;;
53867;SDS011;41577;47.470;19.080;2023-02-28T00:05:38;19.85;;;10.65;;
53867;SDS011;41577;47.470;19.080;2023-02-28T00:05:51;27.48;;;13.05;;
53867;SDS011;41577;47.470;19.080;2023-02-28T00:06:04;28.50;;;13.00;;
53867;SDS011;41577;47.470;19.080;2023-02-28T00:06:17;22.15;;;10.82;;
53867;SDS011;41577;47.470;19.080;2023-02-28T00:06:30;17.05;;;10.85;;
53867;SDS011;41577;47.470;19.080;2023-02-28T00:06:42;18.70;;;10.95;;
53867;SDS011;41577;47.470;19.080;2023-02-28T00:06:55;16.08;;;10.25;;
53867;SDS011;41577;47.470;19.080;2023-02-28T00:07:08;12.85;;;9.20;;
53867;SDS011;41577;47.470;19.080;2023-02-28T00:07:20;11.23;;;8.35;;
53867;SDS011;41577;47.470;19.080;2023-02-28T00:07:34;12.98;;;9.02;;
53867;SDS011;41577;47.470;19.080;2023-02-28T00:07:47;15.90;;;9.90;;
53867;SDS011;41577;47.470;19.080;2023-02-28T00:08:00;17.98;;;10.57;;
53867;SDS011;41577;47.470;19.080;2023-02-28T00:08:13;24.38;;;15.43;;
53867;SDS011;41577;47.470;19.080;2023-02-28T00:08:25;29.63;;;20.58;;
53867;SDS011;41577;47.470;19.080;2023-02-28T00:08:38;27.95;;;18.42;;
53867;SDS011;41577;47.470;19.080;2023-02-28T00:08:51;25.16;;;14.52;;
53867;SDS011;41577;47.470;19.080;2023-02-28T00:09:03;19.95;;;11.52;;
53867;SDS011;41577;47.470;19.080;2023-02-28T00:09:16;19.98;;;10.00;;
53867;SDS011;41577;47.470;19.080;2023-02-28T00:09:30;15.68;;;9.20;;
53867;SDS011;41577;47.470;19.080;2023-02-28T00:09:43;15.50;;;9.32;;
53867;SDS011;41577;47.470;19.080;2023-02-28T00:09:55;19.30;;;9.57;;
53867;SDS011;41577;47.470;19.080;2023-02-28T00:10:08;20.25;;;9.80;;
53867;SDS011;41577;47.470;19.080;2023-02-28T00:10:22;15.35;;;9.40;;
53867;SDS011;41577;47.470;19.080;2023-02-28T00:10:38;14.75;;;9.13;;
53867;SDS011;41577;47.470;19.080;2023-02-28T00:10:53;14.40;;;9.00;;
53867;SDS011;41577;47.470;19.080;2023-02-28T00:11:09;12.90;;;8.75;;
53867;SDS011;41577;47.470;19.080;2023-02-28T00:11:22;14.73;;;8.80;;
53867;SDS011;41577;47.470;19.080;2023-02-28T00:11:35;16.45;;;9.05;;
53867;SDS011;41577;47.470;19.080;2023-02-28T00:11:48;15.25;;;9.07;;
53867;SDS011;41577;47.470;19.080;2023-02-28T00:12:00;15.65;;;9.13;;
53867;SDS011;41577;47.470;19.080;2023-02-28T00:12:14;16.92;;;9.23;;
53867;SDS011;41577;47.470;19.080;2023-02-28T00:12:27;15.07;;;9.32;;
53867;SDS011;41577;47.470;19.080;2023-02-28T00:12:40;13.88;;;9.15;;
53867;SDS011;41577;47.470;19.080;2023-02-28T00:12:55;15.18;;;8.88;;
53867;SDS011;41577;47.470;19.080;2023-02-28T00:13:13;18.83;;;8.98;;
53867;SDS011;41577;47.470;19.080;2023-02-28T00:13:26;17.70;;;9.00;;
53867;SDS011;41577;47.470;19.080;2023-02-28T00:13:39;16.17;;;9.05;;
53867;SDS011;41577;47.470;19.080;2023-02-28T00:13:54;14.43;;;9.13;;
53867;SDS011;41577;47.470;19.080;2023-02-28T00:14:07;15.52;;;8.90;;
53867;SDS011;41577;47.470;19.080;2023-02-28T00:14:20;16.30;;;8.45;;
53867;SDS011;41577;47.470;19.080;2023-02-28T00:14:32;13.88;;;8.77;;
53867;SDS011;41577;47.470;19.080;2023-02-28T00:14:45;14.63;;;9.20;;
53867;SDS011;41577;47.470;19.080;2023-02-28T00:14:57;15.10;;;9.63;;
53867;SDS011;41577;47.470;19.080;2023-02-28T00:15:09;19.77;;;11.35;;
53867;SDS011;41577;47.470;19.080;2023-02-28T00:15:25;24.70;;;13.77;;
53867;SDS011;41577;47.470;19.080;2023-02-28T00:15:38;23.17;;;14.52;;
53867;SDS011;41577;47.470;19.080;2023-02-28T00:15:58;22.00;;;16.00;;
53867;SDS011;41577;47.470;19.080;2023-02-28T00:16:11;24.48;;;18.38;;
53867;SDS011;41577;47.470;19.080;2023-02-28T00:16:25;25.05;;;19.08;;
53867;SDS011;41577;47.470;19.080;2023-02-28T00:16:37;24.70;;;18.08;;
53867;SDS011;41577;47.470;19.080;2023-02-28T00:16:49;23.33;;;15.27;;
53867;SDS011;41577;47.470;19.080;2023-02-28T00:17:04;19.80;;;11.38;;
53867;SDS011;41577;47.470;19.080;2023-02-28T00:17:17;16.92;;;10.52;;
53867;SDS011;41577;47.470;19.080;2023-02-28T00:17:31;18.23;;;10.65;;
53867;SDS011;41577;47.470;19.080;2023-02-28T00:17:44;20.77;;;11.40;;
53867;SDS011;41577;47.470;19.080;2023-02-28T00:17:57;18.27;;;11.85;;
53867;SDS011;41577;47.470;19.080;2023-02-28T00:18:09;16.85;;;12.27;;
53867;SDS011;41577;47.470;19.080;2023-02-28T00:18:22;18.08;;;12.20;;
53867;SDS011;41577;47.470;19.080;2023-02-28T00:18:35;19.80;;;13.75;;
53867;SDS011;41577;47.470;19.080;2023-02-28T00:18:47;26.33;;;15.43;;
53867;SDS011;41577;47.470;19.080;2023-02-28T00:19:01;26.30;;;15.23;;
53867;SDS011;41577;47.470;19.080;2023-02-28T00:19:13;23.02;;;13.60;;
53867;SDS011;41577;47.470;19.080;2023-02-28T00:19:25;20.48;;;11.38;;
53867;SDS011;41577;47.470;19.080;2023-02-28T00:19:38;18.52;;;10.38;;
53867;SDS011;41577;47.470;19.080;2023-02-28T00:19:50;15.23;;;9.68;;
53867;SDS011;41577;47.470;19.080;2023-02-28T00:20:05;16.25;;;9.75;;
53867;SDS011;41577;47.470;19.080;2023-02-28T00:20:19;18.00;;;9.95;;
53867;SDS011;41577;47.470;19.080;2023-02-28T00:20:32;16.17;;;9.75;;
53867;SDS011;41577;47.470;19.080;2023-02-28T00:20:46;14.88;;;9.55;;
53867;SDS011;41577;47.470;19.080;2023-02-28T00:20:58;15.75;;;9.65;;
53867;SDS011;41577;47.470;19.080;2023-02-28T00:21:10;16.52;;;9.77;;
53867;SDS011;41577;47.470;19.080;2023-02-28T00:21:22;17.65;;;10.00;;
53867;SDS011;41577;47.470;19.080;2023-02-28T00:21:34;17.92;;;9.93;;
53867;SDS011;41577;47.470;19.080;2023-02-28T00:21:46;14.82;;;9.35;;
53867;SDS011;41577;47.470;19.080;2023-02-28T00:21:59;13.75;;;9.18;;
53867;SDS011;41577;47.470;19.080;2023-02-28T00:22:11;15.80;;;9.32;;
53867;SDS011;41577;47.470;19.080;2023-02-28T00:22:23;16.33;;;9.25;;
53867;SDS011;41577;47.470;19.080;2023-02-28T00:22:38;15.45;;;9.35;;
53867;SDS011;41577;47.470;19.080;2023-02-28T00:22:53;17.50;;;9.85;;
53867;SDS011;41577;47.470;19.080;2023-02-28T00:23:07;17.58;;;9.93;;
53867;SDS011;41577;47.470;19.080;2023-02-28T00:23:20;15.57;;;9.93;;
53867;SDS011;41577;47.470;19.080;2023-02-28T00:23:34;16.50;;;9.98;;
53867;SDS011;41577;47.470;19.080;2023-02-28T00:23:51;17.13;;;9.43;;
53867;SDS011;41577;47.470;19.080;2023-02-28T00:24:04;14.30;;;9.23;;
53867;SDS011;41577;47.470;19.080;2023-02-28T00:24:16;15.07;;;9.60;;
53867;SDS011;41577;47.470;19.080;2023-02-28T00:24:29;17.80;;;9.60;;
53867;SDS011;41577;47.470;19.080;2023-02-28T00:24:41;15.98;;;9.50;;
53867;SDS011;41577;47.470;19.080;2023-02-28T00:24:54;16.20;;;9.60;;
53867;SDS011;41577;47.470;19.080;2023-02-28T00:25:07;16.27;;;9.88;;
53867;SDS011;41577;47.470;19.080;2023-02-28T00:25:23;18.88;;;9.98;;
53867;SDS011;41577;47.470;19.080;2023-02-28T00:25:37;18.52;;;9.40;;
53867;SDS011;41577;47.470;19.080;2023-02-28T00:25:50;18.55;;;9.18;;
53867;SDS011;41577;47.470;19.080;2023-02-28T00:26:05;18.10;;;9.63;;
53867;SDS011;41577;47.470;19.080;2023-02-28T00:26:21;17.30;;;10.10;;
53867;SDS011;41577;47.470;19.080;2023-02-28T00:26:34;17.92;;;10.10;;
53867;SDS011;41577;47.470;19.080;2023-02-28T00:26:46;15.00;;;10.05;;
53867;SDS011;41577;47.470;19.080;2023-02-28T00:26:59;13.68;;;9.75;;
53867;SDS011;41577;47.470;19.080;2023-02-28T00:27:11;13.18;;;9.65;;
53867;SDS011;41577;47.470;19.080;2023-02-28T00:27:24;13.98;;;9.50;;
53867;SDS011;41577;47.470;19.080;2023-02-28T00:27:37;14.25;;;9.50;;
53867;SDS011;41577;47.470;19.080;2023-02-28T00:27:50;15.68;;;10.18;;
53867;SDS011;41577;47.470;19.080;2023-02-28T00:28:03;16.75;;;9.90;;
53867;SDS011;41577;47.470;19.080;2023-02-28T00:28:16;18.05;;;9.48;;
53867;SDS011;41577;47.470;19.080;2023-02-28T00:28:29;16.92;;;9.52;;
53867;SDS011;41577;47.470;19.080;2023-02-28T00:28:43;14.05;;;9.40;;
53867;SDS011;41577;47.470;19.080;2023-02-28T00:28:55;15.57;;;9.68;;
53867;SDS011;41577;47.470;19.080;2023-02-28T00:29:07;15.63;;;9.80;;
53867;SDS011;41577;47.470;19.080;2023-02-28T00:29:20;14.05;;;9.70;;
53867;SDS011;41577;47.470;19.080;2023-02-28T00:29:33;13.65;;;9.65;;
53867;SDS011;41577;47.470;19.080;2023-02-28T00:29:46;14.63;;;9.73;;
53867;SDS011;41577;47.470;19.080;2023-02-28T00:29:59;15.20;;;10.05;;
53867;SDS011;41577;47.470;19.080;2023-02-28T00:30:12;16.00;;;9.90;;
53867;SDS011;41577;47.470;19.080;2023-02-28T00:30:35;16.38;;;10.00;;
53867;SDS011;41577;47.470;19.080;2023-02-28T00:30:49;14.35;;;10.00;;
53867;SDS011;41577;47.470;19.080;2023-02-28T00:31:02;13.75;;;9.45;;
53867;SDS011;41577;47.470;19.080;2023-02-28T00:31:16;14.23;;;9.43;;
53867;SDS011;41577;47.470;19.080;2023-02-28T00:31:33;14.43;;;9.68;;
53867;SDS011;41577;47.470;19.080;2023-02-28T00:31:45;13.07;;;9.57;;
53867;SDS011;41577;47.470;19.080;2023-02-28T00:31:58;12.63;;;9.32;;
53867;SDS011;41577;47.470;19.080;2023-02-28T00:32:11;16.02;;;9.48;;
53867;SDS011;41577;47.470;19.080;2023-02-28T00:32:23;17.85;;;9.48;;
53867;SDS011;41577;47.470;19.080;2023-02-28T00:32:36;15.02;;;9.43;;
53867;SDS011;41577;47.470;19.080;2023-02-28T00:32:53;13.90;;;9.48;;
53867;SDS011;41577;47.470;19.080;2023-02-28T00:33:05;13.15;;;9.43;;
53867;SDS011;41577;47.470;19.080;2023-02-28T00:33:18;14.57;;;9.68;;
53867;SDS011;41577;47.470;19.080;2023-02-28T00:33:31;17.52;;;9.32;;
53867;SDS011;41577;47.470;19.080;2023-02-28T00:33:45;17.48;;;9.13;;
53867;SDS011;41577;47.470;19.080;2023-02-28T00:33:58;20.77;;;9.73;;
53867;SDS011;41577;47.470;19.080;2023-02-28T00:34:11;21.77;;;9.93;;
53867;SDS011;41577;47.470;19.080;2023-02-28T00:34:24;18.05;;;9.27;;
53867;SDS011;41577;47.470;19.080;2023-02-28T00:34:37;17.15;;;9.30;;
53867;SDS011;41577;47.470;19.080;2023-02-28T00:34:50;15.60;;;9.60;;
53867;SDS011;41577;47.470;19.080;2023-02-28T00:35:02;16.33;;;10.38;;
53867;SDS011;41577;47.470;19.080;2023-02-28T00:35:16;18.00;;;10.60;;
53867;SDS011;41577;47.470;19.080;2023-02-28T00:35:29;16.65;;;10.13;;
53867;SDS011;41577;47.470;19.080;2023-02-28T00:35:41;14.98;;;9.70;;
53867;SDS011;41577;47.470;19.080;2023-02-28T00:36:01;13.45;;;9.25;;
53867;SDS011;41577;47.470;19.080;2023-02-28T00:36:14;15.50;;;9.73;;
53867;SDS011;41577;47.470;19.080;2023-02-28T00:36:27;17.65;;;10.50;;
53867;SDS011;41577;47.470;19.080;2023-02-28T00:36:39;18.05;;;10.70;;
53867;SDS011;41577;47.470;19.080;2023-02-28T00:36:51;14.90;;;10.40;;
53867;SDS011;41577;47.470;19.080;2023-02-28T00:37:04;15.15;;;10.75;;
53867;SDS011;41577;47.470;19.080;2023-02-28T00:37:17;14.68;;;10.43;;
53867;SDS011;41577;47.470;19.080;2023-02-28T00:37:30;15.18;;;10.15;;
53867;SDS011;41577;47.470;19.080;2023-02-28T00:37:47;17.55;;;10.23;;
53867;SDS011;41577;47.470;19.080;2023-02-28T00:38:00;18.23;;;10.10;;
53867;SDS011;41577;47.470;19.080;2023-02-28T00:38:13;16.85;;;10.15;;
53867;SDS011;41577;47.470;19.080;2023-02-28T00:38:27;16.77;;;10.27;;
53867;SDS011;41577;47.470;19.080;2023-02-28T00:38:39;17.70;;;10.25;;
53867;SDS011;41577;47.470;19.080;2023-02-28T00:38:54;16.77;;;10.05;;
53867;SDS011;41577;47.470;19.080;2023-02-28T00:39:06;13.27;;;9.35;;
53867;SDS011;41577;47.470;19.080;2023-02-28T00:39:19;15.82;;;9.63;;
53867;SDS011;41577;47.470;19.080;2023-02-28T00:39:33;18.83;;;10.18;;
53867;SDS011;41577;47.470;19.080;2023-02-28T00:39:46;20.33;;;10.13;;
53867;SDS011;41577;47.470;19.080;2023-02-28T00:40:00;18.45;;;10.20;;
53867;SDS011;41577;47.470;19.080;2023-02-28T00:40:12;16.05;;;10.25;;
53867;SDS011;41577;47.470;19.080;2023-02-28T00:40:25;17.02;;;10.05;;
53867;SDS011;41577;47.470;19.080;2023-02-28T00:40:37;15.50;;;9.88;;
53867;SDS011;41577;47.470;19.080;2023-02-28T00:40:50;15.13;;;9.68;;
53867;SDS011;41577;47.470;19.080;2023-02-28T00:41:02;14.35;;;9.77;;
53867;SDS011;41577;47.470;19.080;2023-02-28T00:41:17;17.35;;;9.68;;
53867;SDS011;41577;47.470;19.080;2023-02-28T00:41:31;17.45;;;9.60;;
53867;SDS011;41577;47.470;19.080;2023-02-28T00:41:44;16.15;;;9.60;;
53867;SDS011;41577;47.470;19.080;2023-02-28T00:41:58;18.25;;;9.68;;
53867;SDS011;41577;47.470;19.080;2023-02-28T00:42:11;20.05;;;10.40;;
53867;SDS011;41577;47.470;19.080;2023-02-28T00:42:23;19.98;;;10.75;;
53867;SDS011;41577;47.470;19.080;2023-02-28T00:42:37;18.25;;;10.57;;
53867;SDS011;41577;47.470;19.080;2023-02-28T00:42:51;14.52;;;9.98;;
53867;SDS011;41577;47.470;19.080;2023-02-28T00:43:04;12.82;;;9.63;;
53867;SDS011;41577;47.470;19.080;2023-02-28T00:43:16;14.07;;;9.70;;
53867;SDS011;41577;47.470;19.080;2023-02-28T00:43:29;16.23;;;9.75;;
53867;SDS011;41577;47.470;19.080;2023-02-28T00:43:41;16.25;;;10.13;;
53867;SDS011;41577;47.470;19.080;2023-02-28T00:43:55;16.63;;;10.18;;
53867;SDS011;41577;47.470;19.080;2023-02-28T00:44:07;16.45;;;10.60;;
53867;SDS011;41577;47.470;19.080;2023-02-28T00:44:20;18.63;;;11.15;;
53867;SDS011;41577;47.470;19.080;2023-02-28T00:44:33;18.42;;;11.00;;
53867;SDS011;41577;47.470;19.080;2023-02-28T00:44:45;15.10;;;10.38;;
53867;SDS011;41577;47.470;19.080;2023-02-28T00:44:58;16.13;;;10.48;;
53867;SDS011;41577;47.470;19.080;2023-02-28T00:45:10;15.82;;;10.57;;
53867;SDS011;41577;47.470;19.080;2023-02-28T00:45:23;18.90;;;10.40;;
53867;SDS011;41577;47.470;19.080;2023-02-28T00:45:35;19.58;;;10.25;;
53867;SDS011;41577;47.470;19.080;2023-02-28T00:45:48;17.73;;;10.65;;
53867;SDS011;41577;47.470;19.080;2023-02-28T00:46:01;15.00;;;10.35;;
53867;SDS011;41577;47.470;19.080;2023-02-28T00:46:14;14.30;;;10.18;;
53867;SDS011;41577;47.470;19.080;2023-02-28T00:46:27;14.27;;;10.57;;
53867;SDS011;41577;47.470;19.080;2023-02-28T00:46:42;14.93;;;10.80;;
53867;SDS011;41577;47.470;19.080;2023-02-28T00:46:55;17.08;;;11.00;;
53867;SDS011;41577;47.470;19.080;2023-02-28T00:47:08;16.23;;;10.18;;
53867;SDS011;41577;47.470;19.080;2023-02-28T00:47:21;14.52;;;9.50;;
53867;SDS011;41577;47.470;19.080;2023-02-28T00:47:34;15.25;;;10.15;;
53867;SDS011;41577;47.470;19.080;2023-02-28T00:47:46;15.43;;;10.52;;
53867;SDS011;41577;47.470;19.080;2023-02-28T00:47:59;17.95;;;10.73;;
53867;SDS011;41577;47.470;19.080;2023-02-28T00:48:11;17.88;;;10.85;;
53867;SDS011;41577;47.470;19.080;2023-02-28T00:48:24;20.45;;;10.77;;
53867;SDS011;41577;47.470;19.080;2023-02-28T00:48:37;20.65;;;10.63;;
53867;SDS011;41577;47.470;19.080;2023-02-28T00:48:50;19.92;;;10.82;;
53867;SDS011;41577;47.470;19.080;2023-02-28T00:49:03;20.45;;;10.57;;
53867;SDS011;41577;47.470;19.080;2023-02-28T00:49:20;16.40;;;10.55;;
53867;SDS011;41577;47.470;19.080;2023-02-28T00:49:34;15.05;;;10.65;;
53867;SDS011;41577;47.470;19.080;2023-02-28T00:49:46;15.27;;;10.77;;
53867;SDS011;41577;47.470;19.080;2023-02-28T00:49:59;16.63;;;11.20;;
53867;SDS011;41577;47.470;19.080;2023-02-28T00:50:13;16.88;;;11.20;;
53867;SDS011;41577;47.470;19.080;2023-02-28T00:50:28;14.68;;;10.30;;
53867;SDS011;41577;47.470;19.080;2023-02-28T00:50:42;16.33;;;10.60;;
53867;SDS011;41577;47.470;19.080;2023-02-28T00:50:57;17.13;;;10.95;;
53867;SDS011;41577;47.470;19.080;2023-02-28T00:51:10;17.40;;;11.10;;
53867;SDS011;41577;47.470;19.080;2023-02-28T00:51:22;18.48;;;10.75;;
53867;SDS011;41577;47.470;19.080;2023-02-28T00:51:35;19.45;;;11.00;;
53867;SDS011;41577;47.470;19.080;2023-02-28T00:51:47;19.48;;;11.23;;
53867;SDS011;41577;47.470;19.080;2023-02-28T00:51:59;18.48;;;11.00;;
53867;SDS011;41577;47.470;19.080;2023-02-28T00:52:11;16.50;;;10.15;;
53867;SDS011;41577;47.470;19.080;2023-02-28T00:52:25;16.65;;;10.18;;
53867;SDS011;41577;47.470;19.080;2023-02-28T00:52:38;17.77;;;10.15;;
53867;SDS011;41577;47.470;19.080;2023-02-28T00:52:52;17.67;;;10.45;;
53867;SDS011;41577;47.470;19.080;2023-02-28T00:53:05;17.52;;;10.65;;
53867;SDS011;41577;47.470;19.080;2023-02-28T00:53:18;17.63;;;11.20;;
53867;SDS011;41577;47.470;19.080;2023-02-28T00:53:30;17.05;;;11.48;;
53867;SDS011;41577;47.470;19.080;2023-02-28T00:53:43;18.25;;;11.48;;
53867;SDS011;41577;47.470;19.080;2023-02-28T00:53:55;17.27;;;11.15;;
53867;SDS011;41577;47.470;19.080;2023-02-28T00:54:08;17.67;;;11.18;;
53867;SDS011;41577;47.470;19.080;2023-02-28T00:54:20;18.33;;;11.10;;
53867;SDS011;41577;47.470;19.080;2023-02-28T00:54:34;20.50;;;10.85;;
53867;SDS011;41577;47.470;19.080;2023-02-28T00:54:46;19.10;;;10.63;;
53867;SDS011;41577;47.470;19.080;2023-02-28T00:54:59;21.50;;;10.57;;
53867;SDS011;41577;47.470;19.080;2023-02-28T00:55:12;20.00;;;10.38;;
53867;SDS011;41577;47.470;19.080;2023-02-28T00:55:25;18.08;;;10.63;;
53867;SDS011;41577;47.470;19.080;2023-02-28T00:55:38;16.17;;;10.95;;
53867;SDS011;41577;47.470;19.080;2023-02-28T00:55:51;17.60;;;11.15;;
53867;SDS011;41577;47.470;19.080;2023-02-28T00:56:05;17.42;;;10.82;;
53867;SDS011;41577;47.470;19.080;2023-02-28T00:56:17;21.67;;;11.15;;
53867;SDS011;41577;47.470;19.080;2023-02-28T00:56:31;25.95;;;11.80;;
53867;SDS011;41577;47.470;19.080;2023-02-28T00:56:44;24.13;;;11.10;;
53867;SDS011;41577;47.470;19.080;2023-02-28T00:56:57;19.98;;;11.05;;
53867;SDS011;41577;47.470;19.080;2023-02-28T00:57:09;19.35;;;11.13;;
53867;SDS011;41577;47.470;19.080;2023-02-28T00:57:21;19.83;;;11.20;;
53867;SDS011;41577;47.470;19.080;2023-02-28T00:57:34;20.77;;;10.75;;
53867;SDS011;41577;47.470;19.080;2023-02-28T00:57:47;19.92;;;10.82;;
53867;SDS011;41577;47.470;19.080;2023-02-28T00:58:00;20.23;;;10.90;;
53867;SDS011;41577;47.470;19.080;2023-02-28T00:58:12;20.05;;;10.57;;
53867;SDS011;41577;47.470;19.080;2023-02-28T00:58:25;21.08;;;10.70;;
53867;SDS011;41577;47.470;19.080;2023-02-28T00:58:37;20.00;;;10.55;;
53867;SDS011;41577;47.470;19.080;2023-02-28T00:58:50;17.65;;;11.23;;
53867;SDS011;41577;47.470;19.080;2023-02-28T00:59:03;19.98;;;11.38;;
53867;SDS011;41577;47.470;19.080;2023-02-28T00:59:16;19.25;;;11.13;;
53867;SDS011;41577;47.470;19.080;2023-02-28T00:59:29;17.63;;;10.55;;
53867;SDS011;41577;47.470;19.080;2023-02-28T00:59:41;16.13;;;10.77;;
53867;SDS011;41577;47.470;19.080;2023-02-28T00:59:53;17.30;;;11.07;;
53867;SDS011;41577;47.470;19.080;2023-02-28T01:00:07;16.30;;;11.13;;
53867;SDS011;41577;47.470;19.080;2023-02-28T01:00:20;17.48;;;10.75;;
53867;SDS011;41577;47.470;19.080;2023-02-28T01:00:34;20.33;;;10.88;;
53867;SDS011;41577;47.470;19.080;2023-02-28T01:00:47;19.20;;;11.07;;
53867;SDS011;41577;47.470;19.080;2023-02-28T01:00:59;17.98;;;11.35;;
53867;SDS011;41577;47.470;19.080;2023-02-28T01:01:12;17.84;;;11.36;;
53867;SDS011;41577;47.470;19.080;2023-02-28T01:01:25;15.40;;;11.10;;
53867;SDS011;41577;47.470;19.080;2023-02-28T01:01:37;19.60;;;10.90;;
53867;SDS011;41577;47.470;19.080;2023-02-28T01:01:50;19.20;;;10.63;;
53867;SDS011;41577;47.470;19.080;2023-02-28T01:02:03;17.10;;;10.88;;
53867;SDS011;41577;47.470;19.080;2023-02-28T01:02:16;18.00;;;11.35;;
53867;SDS011;41577;47.470;19.080;2023-02-28T01:02:28;19.48;;;11.48;;
53867;SDS011;41577;47.470;19.080;2023-02-28T01:02:41;18.27;;;11.88;;
53867;SDS011;41577;47.470;19.080;2023-02-28T01:02:53;18.10;;;11.90;;
53867;SDS011;41577;47.470;19.080;2023-02-28T01:03:06;17.25;;;11.73;;
53867;SDS011;41577;47.470;19.080;2023-02-28T01:03:19;18.13;;;11.50;;
53867;SDS011;41577;47.470;19.080;2023-02-28T01:03:32;16.58;;;11.15;;
53867;SDS011;41577;47.470;19.080;2023-02-28T01:03:46;17.73;;;10.95;;
53867;SDS011;41577;47.470;19.080;2023-02-28T01:03:59;19.23;;;11.40;;
53867;SDS011;41577;47.470;19.080;2023-02-28T01:04:11;17.58;;;11.57;;
53867;SDS011;41577;47.470;19.080;2023-02-28T01:04:23;18.83;;;11.48;;
53867;SDS011;41577;47.470;19.080;2023-02-28T01:04:36;19.85;;;11.60;;
53867;SDS011;41577;47.470;19.080;2023-02-28T01:04:50;17.30;;;11.60;;
53867;SDS011;41577;47.470;19.080;2023-02-28T01:05:04;17.45;;;11.50;;
53867;SDS011;41577;47.470;19.080;2023-02-28T01:05:17;17.35;;;11.73;;
53867;SDS011;41577;47.470;19.080;2023-02-28T01:05:31;15.65;;;11.68;;
53867;SDS011;41577;47.470;19.080;2023-02-28T01:05:44;17.05;;;11.73;;
53867;SDS011;41577;47.470;19.080;2023-02-28T01:05:56;18.75;;;11.10;;
53867;SDS011;41577;47.470;19.080;2023-02-28T01:06:09;18.73;;;11.30;;
53867;SDS011;41577;47.470;19.080;2023-02-28T01:06:22;18.67;;;11.57;;
53867;SDS011;41577;47.470;19.080;2023-02-28T01:06:36;17.08;;;11.05;;
53867;SDS011;41577;47.470;19.080;2023-02-28T01:06:49;16.00;;;10.48;;
53867;SDS011;41577;47.470;19.080;2023-02-28T01:07:01;14.38;;;10.77;;
53867;SDS011;41577;47.470;19.080;2023-02-28T01:07:14;16.00;;;11.55;;
53867;SDS011;41577;47.470;19.080;2023-02-28T01:07:28;20.38;;;11.80;;
53867;SDS011;41577;47.470;19.080;2023-02-28T01:07:42;20.20;;;11.68;;
53867;SDS011;41577;47.470;19.080;2023-02-28T01:07:54;15.82;;;11.55;;
53867;SDS011;41577;47.470;19.080;2023-02-28T01:08:07;18.08;;;11.68;;
53867;SDS011;41577;47.470;19.080;2023-02-28T01:08:19;19.80;;;12.40;;
53867;SDS011;41577;47.470;19.080;2023-02-28T01:08:35;19.83;;;12.27;;
53867;SDS011;41577;47.470;19.080;2023-02-28T01:08:48;18.98;;;11.18;;
53867;SDS011;41577;47.470;19.080;2023-02-28T01:09:01;21.60;;;11.00;;
53867;SDS011;41577;47.470;19.080;2023-02-28T01:09:15;22.08;;;11.35;;
53867;SDS011;41577;47.470;19.080;2023-02-28T01:09:28;19.15;;;11.45;;
53867;SDS011;41577;47.470;19.080;2023-02-28T01:09:42;20.45;;;11.55;;
53867;SDS011;41577;47.470;19.080;2023-02-28T01:10:00;17.90;;;11.35;;
53867;SDS011;41577;47.470;19.080;2023-02-28T01:10:14;17.52;;;11.27;;
53867;SDS011;41577;47.470;19.080;2023-02-28T01:10:26;19.15;;;11.50;;
53867;SDS011;41577;47.470;19.080;2023-02-28T01:10:40;18.73;;;11.35;;
53867;SDS011;41577;47.470;19.080;2023-02-28T01:10:53;16.17;;;10.93;;
53867;SDS011;41577;47.470;19.080;2023-02-28T01:11:11;16.45;;;10.88;;
53867;SDS011;41577;47.470;19.080;2023-02-28T01:11:24;15.55;;;11.10;;
53867;SDS011;41577;47.470;19.080;2023-02-28T01:11:39;15.40;;;11.48;;
53867;SDS011;41577;47.470;19.080;2023-02-28T01:11:54;16.23;;;11.80;;
53867;SDS011;41577;47.470;19.080;2023-02-28T01:12:07;17.42;;;11.52;;
53867;SDS011;41577;47.470;19.080;2023-02-28T01:12:20;17.40;;;11.07;;
53867;SDS011;41577;47.470;19.080;2023-02-28T01:12:32;16.65;;;11.40;;
53867;SDS011;41577;47.470;19.080;2023-02-28T01:12:45;15.40;;;11.32;;
53867;SDS011;41577;47.470;19.080;2023-02-28T01:13:00;18.05;;;11.50;;
53867;SDS011;41577;47.470;19.080;2023-02-28T01:13:13;17.73;;;11.05;;
53867;SDS011;41577;47.470;19.080;2023-02-28T01:13:26;15.70;;;11.02;;
53867;SDS011;41577;47.470;19.080;2023-02-28T01:13:38;16.05;;;11.63;;
53867;SDS011;41577;47.470;19.080;2023-02-28T01:13:51;16.20;;;11.90;;
53867;SDS011;41577;47.470;19.080;2023-02-28T01:14:03;15.68;;;11.38;;
53867;SDS011;41577;47.470;19.080;2023-02-28T01:14:16;14.85;;;11.25;;
53867;SDS011;41577;47.470;19.080;2023-02-28T01:14:30;15.38;;;10.80;;
53867;SDS011;41577;47.470;19.080;2023-02-28T01:14:44;17.85;;;11.10;;
53867;SDS011;41577;47.470;19.080;2023-02-28T01:14:57;19.83;;;11.77;;
53867;SDS011;41577;47.470;19.080;2023-02-28T01:15:09;17.23;;;11.57;;
53867;SDS011;41577;47.470;19.080;2023-02-28T01:15:22;16.05;;;11.20;;
53867;SDS011;41577;47.470;19.080;2023-02-28T01:15:35;16.73;;;11.23;;
53867;SDS011;41577;47.470;19.080;2023-02-28T01:15:49;20.58;;;11.75;;
53867;SDS011;41577;47.470;19.080;2023-02-28T01:16:03;19.80;;;11.75;;
53867;SDS011;41577;47.470;19.080;2023-02-28T01:16:19;16.50;;;11.38;;
53867;SDS011;41577;47.470;19.080;2023-02-28T01:16:32;16.10;;;11.38;;
53867;SDS011;41577;47.470;19.080;2023-02-28T01:16:46;17.00;;;11.70;;